sensor_id;sensor_type;location;lat;lon;timestamp;P1;durP1;ratioP1;P2;durP2;ratioP2
16262;SDS011;8239;48.594;8.598;2024-03-02T00:00:39;9.03;;;5.83;;
16262;SDS011;8239;48.594;8.598;2024-03-02T00:03:06;5.70;;;3.67;;
16262;SDS011;8239;48.594;8.598;2024-03-02T00:05:34;7.17;;;4.70;;
16262;SDS011;8239;48.594;8.598;2024-03-02T00:08:01;7.03;;;4.40;;
16262;SDS011;8239;48.594;8.598;2024-03-02T00:10:34;6.47;;;4.67;;
16262;SDS011;8239;48.594;8.598;2024-03-02T00:13:06;6.40;;;4.60;;
16262;SDS011;8239;48.594;8.598;2024-03-02T00:15:45;8.23;;;5.70;;
16262;SDS011;8239;48.594;8.598;2024-03-02T00:18:16;8.47;;;6.07;;
16262;SDS011;8239;48.594;8.598;2024-03-02T00:20:45;11.47;;;7.70;;
16262;SDS011;8239;48.594;8.598;2024-03-02T00:23:14;11.57;;;7.67;;
16262;SDS011;8239;48.594;8.598;2024-03-02T00:25:43;10.17;;;6.17;;
16262;SDS011;8239;48.594;8.598;2024-03-02T00:28:14;7.63;;;5.37;;
16262;SDS011;8239;48.594;8.598;2024-03-02T00:33:31;9.33;;;6.60;;
16262;SDS011;8239;48.594;8.598;2024-03-02T00:35:59;6.50;;;4.10;;
16262;SDS011;8239;48.594;8.598;2024-03-02T00:38:28;7.63;;;4.70;;
16262;SDS011;8239;48.594;8.598;2024-03-02T00:40:55;7.57;;;3.77;;
16262;SDS011;8239;48.594;8.598;2024-03-02T00:46:13;6.70;;;4.40;;
16262;SDS011;8239;48.594;8.598;2024-03-02T00:48:46;5.53;;;4.40;;
16262;SDS011;8239;48.594;8.598;2024-03-02T00:51:17;6.97;;;4.37;;
16262;SDS011;8239;48.594;8.598;2024-03-02T00:53:44;4.17;;;3.33;;
16262;SDS011;8239;48.594;8.598;2024-03-02T00:56:11;3.03;;;2.70;;
16262;SDS011;8239;48.594;8.598;2024-03-02T00:58:38;5.13;;;3.40;;
16262;SDS011;8239;48.594;8.598;2024-03-02T01:01:06;4.50;;;3.33;;
16262;SDS011;8239;48.594;8.598;2024-03-02T01:03:34;4.33;;;3.50;;
16262;SDS011;8239;48.594;8.598;2024-03-02T01:06:02;4.03;;;2.83;;
16262;SDS011;8239;48.594;8.598;2024-03-02T01:08:29;5.33;;;3.10;;
16262;SDS011;8239;48.594;8.598;2024-03-02T01:10:56;4.70;;;3.43;;
16262;SDS011;8239;48.594;8.598;2024-03-02T01:13:23;4.77;;;3.40;;
16262;SDS011;8239;48.594;8.598;2024-03-02T01:15:50;5.83;;;3.60;;
16262;SDS011;8239;48.594;8.598;2024-03-02T01:18:18;6.73;;;4.20;;
16262;SDS011;8239;48.594;8.598;2024-03-02T01:20:46;8.23;;;5.27;;
16262;SDS011;8239;48.594;8.598;2024-03-02T01:23:13;8.17;;;4.80;;
16262;SDS011;8239;48.594;8.598;2024-03-02T01:25:40;6.60;;;4.47;;
16262;SDS011;8239;48.594;8.598;2024-03-02T01:28:07;8.10;;;5.20;;
16262;SDS011;8239;48.594;8.598;2024-03-02T01:30:34;7.97;;;4.97;;
16262;SDS011;8239;48.594;8.598;2024-03-02T01:33:01;9.77;;;5.70;;
16262;SDS011;8239;48.594;8.598;2024-03-02T01:35:30;9.80;;;5.90;;
16262;SDS011;8239;48.594;8.598;2024-03-02T01:37:58;7.77;;;5.17;;
16262;SDS011;8239;48.594;8.598;2024-03-02T01:40:25;7.53;;;5.30;;
16262;SDS011;8239;48.594;8.598;2024-03-02T01:42:53;9.00;;;5.67;;
16262;SDS011;8239;48.594;8.598;2024-03-02T01:45:20;6.67;;;4.43;;
16262;SDS011;8239;48.594;8.598;2024-03-02T01:47:48;6.77;;;4.27;;
16262;SDS011;8239;48.594;8.598;2024-03-02T01:50:15;6.30;;;4.33;;
16262;SDS011;8239;48.594;8.598;2024-03-02T01:52:43;7.37;;;4.70;;
16262;SDS011;8239;48.594;8.598;2024-03-02T01:55:12;8.07;;;5.53;;
16262;SDS011;8239;48.594;8.598;2024-03-02T01:57:39;9.47;;;6.20;;
16262;SDS011;8239;48.594;8.598;2024-03-02T02:00:07;8.63;;;5.93;;
16262;SDS011;8239;48.594;8.598;2024-03-02T02:02:35;11.27;;;7.03;;
16262;SDS011;8239;48.594;8.598;2024-03-02T02:05:02;13.27;;;7.43;;
16262;SDS011;8239;48.594;8.598;2024-03-02T02:07:29;10.87;;;7.40;;
16262;SDS011;8239;48.594;8.598;2024-03-02T02:09:56;14.60;;;8.00;;
16262;SDS011;8239;48.594;8.598;2024-03-02T02:12:24;13.97;;;8.07;;
16262;SDS011;8239;48.594;8.598;2024-03-02T02:14:51;17.27;;;11.63;;
16262;SDS011;8239;48.594;8.598;2024-03-02T02:17:18;13.20;;;8.20;;
16262;SDS011;8239;48.594;8.598;2024-03-02T02:19:45;13.40;;;7.60;;
16262;SDS011;8239;48.594;8.598;2024-03-02T02:22:14;11.80;;;7.60;;
16262;SDS011;8239;48.594;8.598;2024-03-02T02:24:41;14.40;;;7.13;;
16262;SDS011;8239;48.594;8.598;2024-03-02T02:27:08;11.10;;;6.90;;
16262;SDS011;8239;48.594;8.598;2024-03-02T02:29:35;11.83;;;7.40;;
16262;SDS011;8239;48.594;8.598;2024-03-02T02:32:03;13.53;;;7.67;;
16262;SDS011;8239;48.594;8.598;2024-03-02T02:34:30;10.73;;;7.20;;
16262;SDS011;8239;48.594;8.598;2024-03-02T02:36:59;11.37;;;7.33;;
16262;SDS011;8239;48.594;8.598;2024-03-02T02:39:34;9.83;;;6.60;;
16262;SDS011;8239;48.594;8.598;2024-03-02T02:42:01;10.50;;;6.37;;
16262;SDS011;8239;48.594;8.598;2024-03-02T02:44:28;12.07;;;7.20;;
16262;SDS011;8239;48.594;8.598;2024-03-02T02:46:55;10.03;;;6.57;;
16262;SDS011;8239;48.594;8.598;2024-03-02T02:49:22;12.90;;;6.80;;
16262;SDS011;8239;48.594;8.598;2024-03-02T02:51:49;11.57;;;6.97;;
16262;SDS011;8239;48.594;8.598;2024-03-02T02:54:16;11.97;;;7.37;;
16262;SDS011;8239;48.594;8.598;2024-03-02T02:56:44;11.10;;;6.90;;
16262;SDS011;8239;48.594;8.598;2024-03-02T02:59:11;14.63;;;7.70;;
16262;SDS011;8239;48.594;8.598;2024-03-02T03:01:38;14.30;;;7.77;;
16262;SDS011;8239;48.594;8.598;2024-03-02T03:04:04;13.20;;;7.80;;
16262;SDS011;8239;48.594;8.598;2024-03-02T03:06:31;13.40;;;7.33;;
16262;SDS011;8239;48.594;8.598;2024-03-02T03:08:58;13.03;;;7.27;;
16262;SDS011;8239;48.594;8.598;2024-03-02T03:11:25;13.27;;;7.60;;
16262;SDS011;8239;48.594;8.598;2024-03-02T03:13:54;11.53;;;6.50;;
16262;SDS011;8239;48.594;8.598;2024-03-02T03:16:21;10.63;;;6.00;;
16262;SDS011;8239;48.594;8.598;2024-03-02T03:18:48;6.30;;;4.47;;
16262;SDS011;8239;48.594;8.598;2024-03-02T03:21:16;8.40;;;4.53;;
16262;SDS011;8239;48.594;8.598;2024-03-02T03:23:43;8.47;;;4.87;;
16262;SDS011;8239;48.594;8.598;2024-03-02T03:26:10;8.07;;;4.83;;
16262;SDS011;8239;48.594;8.598;2024-03-02T03:28:37;7.47;;;4.80;;
16262;SDS011;8239;48.594;8.598;2024-03-02T03:31:06;5.80;;;4.20;;
16262;SDS011;8239;48.594;8.598;2024-03-02T03:33:33;8.00;;;4.53;;
16262;SDS011;8239;48.594;8.598;2024-03-02T03:36:00;7.30;;;5.00;;
16262;SDS011;8239;48.594;8.598;2024-03-02T03:38:28;9.47;;;5.10;;
16262;SDS011;8239;48.594;8.598;2024-03-02T03:40:56;10.37;;;5.80;;
16262;SDS011;8239;48.594;8.598;2024-03-02T03:43:22;8.53;;;5.40;;
16262;SDS011;8239;48.594;8.598;2024-03-02T03:45:49;15.20;;;7.27;;
16262;SDS011;8239;48.594;8.598;2024-03-02T03:48:18;13.70;;;7.03;;
16262;SDS011;8239;48.594;8.598;2024-03-02T03:50:45;14.00;;;6.97;;
16262;SDS011;8239;48.594;8.598;2024-03-02T03:53:11;12.27;;;6.90;;
16262;SDS011;8239;48.594;8.598;2024-03-02T03:55:39;9.93;;;5.93;;
16262;SDS011;8239;48.594;8.598;2024-03-02T03:58:06;9.23;;;5.43;;
16262;SDS011;8239;48.594;8.598;2024-03-02T04:00:33;9.87;;;5.47;;
16262;SDS011;8239;48.594;8.598;2024-03-02T04:03:00;9.10;;;5.60;;
16262;SDS011;8239;48.594;8.598;2024-03-02T04:05:28;8.60;;;5.13;;
16262;SDS011;8239;48.594;8.598;2024-03-02T04:07:55;10.70;;;6.13;;
16262;SDS011;8239;48.594;8.598;2024-03-02T04:10:22;10.80;;;6.00;;
16262;SDS011;8239;48.594;8.598;2024-03-02T04:12:49;11.17;;;5.97;;
16262;SDS011;8239;48.594;8.598;2024-03-02T04:15:16;10.93;;;5.90;;
16262;SDS011;8239;48.594;8.598;2024-03-02T04:17:44;15.23;;;6.70;;
16262;SDS011;8239;48.594;8.598;2024-03-02T04:20:11;12.20;;;6.50;;
16262;SDS011;8239;48.594;8.598;2024-03-02T04:22:42;12.77;;;7.50;;
16262;SDS011;8239;48.594;8.598;2024-03-02T04:25:09;12.97;;;7.17;;
16262;SDS011;8239;48.594;8.598;2024-03-02T04:27:36;13.50;;;7.03;;
16262;SDS011;8239;48.594;8.598;2024-03-02T04:30:03;11.33;;;7.10;;
16262;SDS011;8239;48.594;8.598;2024-03-02T04:32:31;13.60;;;7.40;;
16262;SDS011;8239;48.594;8.598;2024-03-02T04:34:58;11.30;;;6.13;;
16262;SDS011;8239;48.594;8.598;2024-03-02T04:37:25;9.20;;;5.60;;
16262;SDS011;8239;48.594;8.598;2024-03-02T04:39:53;9.73;;;5.60;;
16262;SDS011;8239;48.594;8.598;2024-03-02T04:42:20;7.90;;;4.90;;
16262;SDS011;8239;48.594;8.598;2024-03-02T04:44:47;9.67;;;5.20;;
16262;SDS011;8239;48.594;8.598;2024-03-02T04:47:14;6.73;;;4.17;;
16262;SDS011;8239;48.594;8.598;2024-03-02T04:49:41;6.57;;;4.20;;
16262;SDS011;8239;48.594;8.598;2024-03-02T04:52:08;7.10;;;4.30;;
16262;SDS011;8239;48.594;8.598;2024-03-02T04:54:35;5.73;;;3.87;;
16262;SDS011;8239;48.594;8.598;2024-03-02T04:57:24;6.03;;;4.03;;
16262;SDS011;8239;48.594;8.598;2024-03-02T04:59:50;6.80;;;4.47;;
16262;SDS011;8239;48.594;8.598;2024-03-02T05:02:17;7.07;;;4.47;;
16262;SDS011;8239;48.594;8.598;2024-03-02T05:04:44;7.27;;;4.27;;
16262;SDS011;8239;48.594;8.598;2024-03-02T05:07:13;6.23;;;4.60;;
16262;SDS011;8239;48.594;8.598;2024-03-02T05:09:40;8.17;;;4.57;;
16262;SDS011;8239;48.594;8.598;2024-03-02T05:12:07;6.27;;;4.30;;
16262;SDS011;8239;48.594;8.598;2024-03-02T05:14:58;8.33;;;5.03;;
16262;SDS011;8239;48.594;8.598;2024-03-02T05:17:25;9.50;;;5.27;;
16262;SDS011;8239;48.594;8.598;2024-03-02T05:19:52;11.43;;;5.83;;
16262;SDS011;8239;48.594;8.598;2024-03-02T05:22:19;10.40;;;5.23;;
16262;SDS011;8239;48.594;8.598;2024-03-02T05:24:46;9.97;;;5.40;;
16262;SDS011;8239;48.594;8.598;2024-03-02T05:27:12;12.50;;;5.50;;
16262;SDS011;8239;48.594;8.598;2024-03-02T05:29:39;9.03;;;5.07;;
16262;SDS011;8239;48.594;8.598;2024-03-02T05:32:08;8.60;;;4.77;;
16262;SDS011;8239;48.594;8.598;2024-03-02T05:34:35;8.47;;;4.97;;
16262;SDS011;8239;48.594;8.598;2024-03-02T05:37:02;10.77;;;5.23;;
16262;SDS011;8239;48.594;8.598;2024-03-02T05:39:28;8.03;;;4.70;;
16262;SDS011;8239;48.594;8.598;2024-03-02T05:41:56;9.30;;;4.83;;
16262;SDS011;8239;48.594;8.598;2024-03-02T05:44:22;8.93;;;5.40;;
16262;SDS011;8239;48.594;8.598;2024-03-02T05:46:49;10.43;;;5.40;;
16262;SDS011;8239;48.594;8.598;2024-03-02T05:49:18;9.00;;;5.00;;
16262;SDS011;8239;48.594;8.598;2024-03-02T05:51:45;11.20;;;5.27;;
16262;SDS011;8239;48.594;8.598;2024-03-02T05:54:11;9.10;;;5.60;;
16262;SDS011;8239;48.594;8.598;2024-03-02T05:56:38;8.90;;;5.23;;
16262;SDS011;8239;48.594;8.598;2024-03-02T05:59:05;9.27;;;5.20;;
16262;SDS011;8239;48.594;8.598;2024-03-02T06:01:37;7.23;;;4.33;;
16262;SDS011;8239;48.594;8.598;2024-03-02T06:04:04;11.70;;;5.40;;
16262;SDS011;8239;48.594;8.598;2024-03-02T06:06:33;9.90;;;5.83;;
16262;SDS011;8239;48.594;8.598;2024-03-02T06:09:00;16.83;;;8.47;;
16262;SDS011;8239;48.594;8.598;2024-03-02T06:11:30;14.33;;;7.80;;
16262;SDS011;8239;48.594;8.598;2024-03-02T06:13:57;13.93;;;8.10;;
16262;SDS011;8239;48.594;8.598;2024-03-02T06:16:24;12.80;;;6.97;;
16262;SDS011;8239;48.594;8.598;2024-03-02T06:18:51;13.77;;;7.10;;
16262;SDS011;8239;48.594;8.598;2024-03-02T06:21:19;12.53;;;6.97;;
16262;SDS011;8239;48.594;8.598;2024-03-02T06:23:47;12.73;;;6.43;;
16262;SDS011;8239;48.594;8.598;2024-03-02T06:26:14;9.53;;;5.50;;
16262;SDS011;8239;48.594;8.598;2024-03-02T06:28:41;11.53;;;6.10;;
16262;SDS011;8239;48.594;8.598;2024-03-02T06:31:09;12.47;;;6.53;;
16262;SDS011;8239;48.594;8.598;2024-03-02T06:33:36;13.40;;;6.73;;
16262;SDS011;8239;48.594;8.598;2024-03-02T06:36:03;13.50;;;7.27;;
16262;SDS011;8239;48.594;8.598;2024-03-02T06:38:33;11.43;;;6.17;;
16262;SDS011;8239;48.594;8.598;2024-03-02T06:41:02;35.20;;;19.30;;
16262;SDS011;8239;48.594;8.598;2024-03-02T06:43:29;45.97;;;26.77;;
16262;SDS011;8239;48.594;8.598;2024-03-02T06:45:56;14.17;;;8.53;;
16262;SDS011;8239;48.594;8.598;2024-03-02T06:48:23;12.90;;;6.47;;
16262;SDS011;8239;48.594;8.598;2024-03-02T06:50:50;9.40;;;5.90;;
16262;SDS011;8239;48.594;8.598;2024-03-02T06:53:18;9.60;;;5.53;;
16262;SDS011;8239;48.594;8.598;2024-03-02T06:55:45;9.43;;;5.43;;
16262;SDS011;8239;48.594;8.598;2024-03-02T06:58:14;8.37;;;5.60;;
16262;SDS011;8239;48.594;8.598;2024-03-02T07:00:41;9.23;;;5.77;;
16262;SDS011;8239;48.594;8.598;2024-03-02T07:03:09;10.37;;;5.73;;
16262;SDS011;8239;48.594;8.598;2024-03-02T07:05:36;7.50;;;5.30;;
16262;SDS011;8239;48.594;8.598;2024-03-02T07:08:03;9.87;;;6.20;;
16262;SDS011;8239;48.594;8.598;2024-03-02T07:10:31;9.77;;;6.47;;
16262;SDS011;8239;48.594;8.598;2024-03-02T07:12:58;10.87;;;6.70;;
16262;SDS011;8239;48.594;8.598;2024-03-02T07:15:26;10.00;;;6.80;;
16262;SDS011;8239;48.594;8.598;2024-03-02T07:18:10;12.50;;;7.83;;
16262;SDS011;8239;48.594;8.598;2024-03-02T07:20:36;11.00;;;7.57;;
16262;SDS011;8239;48.594;8.598;2024-03-02T07:23:04;11.87;;;7.63;;
16262;SDS011;8239;48.594;8.598;2024-03-02T07:25:31;11.30;;;7.60;;
16262;SDS011;8239;48.594;8.598;2024-03-02T07:27:58;10.93;;;8.13;;
16262;SDS011;8239;48.594;8.598;2024-03-02T07:30:27;5.93;;;5.10;;
16262;SDS011;8239;48.594;8.598;2024-03-02T07:32:54;6.73;;;4.77;;
16262;SDS011;8239;48.594;8.598;2024-03-02T07:35:20;5.17;;;4.10;;
16262;SDS011;8239;48.594;8.598;2024-03-02T07:37:51;11.10;;;7.33;;
16262;SDS011;8239;48.594;8.598;2024-03-02T07:40:21;3.97;;;3.60;;
16262;SDS011;8239;48.594;8.598;2024-03-02T07:42:49;3.87;;;3.47;;
16262;SDS011;8239;48.594;8.598;2024-03-02T07:45:16;4.13;;;3.73;;
16262;SDS011;8239;48.594;8.598;2024-03-02T07:47:44;3.80;;;3.40;;
16262;SDS011;8239;48.594;8.598;2024-03-02T07:50:12;4.18;;;3.80;;
16262;SDS011;8239;48.594;8.598;2024-03-02T07:52:39;4.40;;;4.00;;
16262;SDS011;8239;48.594;8.598;2024-03-02T07:55:07;9.57;;;7.75;;
16262;SDS011;8239;48.594;8.598;2024-03-02T07:57:34;4.18;;;3.85;;
16262;SDS011;8239;48.594;8.598;2024-03-02T08:00:01;4.50;;;4.10;;
16262;SDS011;8239;48.594;8.598;2024-03-02T08:02:28;4.20;;;3.90;;
16262;SDS011;8239;48.594;8.598;2024-03-02T08:04:57;4.57;;;4.22;;
16262;SDS011;8239;48.594;8.598;2024-03-02T08:07:24;5.00;;;4.60;;
16262;SDS011;8239;48.594;8.598;2024-03-02T08:09:51;4.75;;;4.35;;
16262;SDS011;8239;48.594;8.598;2024-03-02T08:12:18;5.22;;;4.82;;
16262;SDS011;8239;48.594;8.598;2024-03-02T08:14:46;5.30;;;4.90;;
16262;SDS011;8239;48.594;8.598;2024-03-02T08:17:13;5.05;;;4.65;;
16262;SDS011;8239;48.594;8.598;2024-03-02T08:19:40;4.80;;;4.40;;
16262;SDS011;8239;48.594;8.598;2024-03-02T08:22:09;4.18;;;3.88;;
16262;SDS011;8239;48.594;8.598;2024-03-02T08:24:37;4.22;;;3.92;;
16262;SDS011;8239;48.594;8.598;2024-03-02T08:27:07;4.25;;;3.90;;
16262;SDS011;8239;48.594;8.598;2024-03-02T08:29:37;3.40;;;3.20;;
16262;SDS011;8239;48.594;8.598;2024-03-02T08:32:06;5.05;;;4.65;;
16262;SDS011;8239;48.594;8.598;2024-03-02T08:34:33;4.93;;;4.60;;
16262;SDS011;8239;48.594;8.598;2024-03-02T08:37:00;4.43;;;4.13;;
16262;SDS011;8239;48.594;8.598;2024-03-02T08:39:29;3.83;;;3.53;;
16262;SDS011;8239;48.594;8.598;2024-03-02T08:41:56;6.03;;;5.53;;
16262;SDS011;8239;48.594;8.598;2024-03-02T08:44:23;4.57;;;4.18;;
16262;SDS011;8239;48.594;8.598;2024-03-02T08:46:50;5.35;;;4.95;;
16262;SDS011;8239;48.594;8.598;2024-03-02T08:49:17;7.68;;;7.07;;
16262;SDS011;8239;48.594;8.598;2024-03-02T08:51:44;7.18;;;6.57;;
16262;SDS011;8239;48.594;8.598;2024-03-02T08:54:19;7.22;;;6.63;;
16262;SDS011;8239;48.594;8.598;2024-03-02T08:56:47;6.38;;;5.88;;
16262;SDS011;8239;48.594;8.598;2024-03-02T08:59:15;7.60;;;7.00;;
16262;SDS011;8239;48.594;8.598;2024-03-02T09:01:41;7.53;;;6.93;;
16262;SDS011;8239;48.594;8.598;2024-03-02T09:04:10;7.53;;;6.93;;
16262;SDS011;8239;48.594;8.598;2024-03-02T09:06:37;7.80;;;7.15;;
16262;SDS011;8239;48.594;8.598;2024-03-02T09:09:04;8.15;;;7.55;;
16262;SDS011;8239;48.594;8.598;2024-03-02T09:11:31;8.43;;;7.72;;
16262;SDS011;8239;48.594;8.598;2024-03-02T09:14:00;7.60;;;7.00;;
16262;SDS011;8239;48.594;8.598;2024-03-02T09:16:27;8.00;;;7.30;;
16262;SDS011;8239;48.594;8.598;2024-03-02T09:18:55;6.97;;;6.40;;
16262;SDS011;8239;48.594;8.598;2024-03-02T09:21:22;6.72;;;6.22;;
16262;SDS011;8239;48.594;8.598;2024-03-02T09:23:50;7.57;;;6.88;;
16262;SDS011;8239;48.594;8.598;2024-03-02T09:26:17;7.35;;;6.82;;
16262;SDS011;8239;48.594;8.598;2024-03-02T09:28:44;7.97;;;7.13;;
16262;SDS011;8239;48.594;8.598;2024-03-02T09:31:13;7.25;;;6.65;;
16262;SDS011;8239;48.594;8.598;2024-03-02T09:33:40;7.82;;;7.22;;
16262;SDS011;8239;48.594;8.598;2024-03-02T09:36:16;7.68;;;7.07;;
16262;SDS011;8239;48.594;8.598;2024-03-02T09:38:43;7.97;;;7.32;;
16262;SDS011;8239;48.594;8.598;2024-03-02T09:41:10;7.60;;;7.00;;
16262;SDS011;8239;48.594;8.598;2024-03-02T09:43:37;7.68;;;7.07;;
16262;SDS011;8239;48.594;8.598;2024-03-02T09:46:05;8.07;;;7.28;;
16262;SDS011;8239;48.594;8.598;2024-03-02T09:48:34;8.13;;;7.50;;
16262;SDS011;8239;48.594;8.598;2024-03-02T09:51:01;8.05;;;7.35;;
16262;SDS011;8239;48.594;8.598;2024-03-02T09:53:28;7.88;;;7.20;;
16262;SDS011;8239;48.594;8.598;2024-03-02T09:55:58;7.15;;;6.55;;
16262;SDS011;8239;48.594;8.598;2024-03-02T09:58:26;7.10;;;6.50;;
16262;SDS011;8239;48.594;8.598;2024-03-02T10:00:52;6.60;;;6.00;;
16262;SDS011;8239;48.594;8.598;2024-03-02T10:03:19;6.95;;;6.35;;
16262;SDS011;8239;48.594;8.598;2024-03-02T10:05:49;6.78;;;6.18;;
16262;SDS011;8239;48.594;8.598;2024-03-02T10:08:17;7.07;;;6.47;;
16262;SDS011;8239;48.594;8.598;2024-03-02T10:10:44;7.53;;;6.82;;
16262;SDS011;8239;48.594;8.598;2024-03-02T10:13:11;6.68;;;6.15;;
16262;SDS011;8239;48.594;8.598;2024-03-02T10:15:39;6.45;;;5.95;;
16262;SDS011;8239;48.594;8.598;2024-03-02T10:18:08;6.15;;;5.65;;
16262;SDS011;8239;48.594;8.598;2024-03-02T10:20:37;6.25;;;5.72;;
16262;SDS011;8239;48.594;8.598;2024-03-02T10:23:12;6.18;;;5.68;;
16262;SDS011;8239;48.594;8.598;2024-03-02T10:25:40;6.32;;;5.78;;
16262;SDS011;8239;48.594;8.598;2024-03-02T10:28:07;6.55;;;6.03;;
16262;SDS011;8239;48.594;8.598;2024-03-02T10:30:34;6.22;;;5.72;;
16262;SDS011;8239;48.594;8.598;2024-03-02T10:33:02;6.65;;;6.05;;
16262;SDS011;8239;48.594;8.598;2024-03-02T10:35:29;6.60;;;6.10;;
16262;SDS011;8239;48.594;8.598;2024-03-02T10:37:58;6.65;;;6.05;;
16262;SDS011;8239;48.594;8.598;2024-03-02T10:40:26;6.72;;;6.18;;
16262;SDS011;8239;48.594;8.598;2024-03-02T10:42:53;7.22;;;6.63;;
16262;SDS011;8239;48.594;8.598;2024-03-02T10:45:21;6.57;;;5.97;;
16262;SDS011;8239;48.594;8.598;2024-03-02T10:47:49;6.35;;;5.85;;
16262;SDS011;8239;48.594;8.598;2024-03-02T10:50:17;6.47;;;5.88;;
16262;SDS011;8239;48.594;8.598;2024-03-02T10:52:44;5.55;;;5.00;;
16262;SDS011;8239;48.594;8.598;2024-03-02T10:55:11;5.75;;;5.25;;
16262;SDS011;8239;48.594;8.598;2024-03-02T10:57:42;5.20;;;4.80;;
16262;SDS011;8239;48.594;8.598;2024-03-02T11:00:16;5.47;;;4.97;;
16262;SDS011;8239;48.594;8.598;2024-03-02T11:02:50;5.43;;;4.95;;
16262;SDS011;8239;48.594;8.598;2024-03-02T11:05:20;5.28;;;4.78;;
16262;SDS011;8239;48.594;8.598;2024-03-02T11:07:53;5.10;;;4.50;;
16262;SDS011;8239;48.594;8.598;2024-03-02T11:10:25;5.05;;;4.65;;
16262;SDS011;8239;48.594;8.598;2024-03-02T11:12:56;6.15;;;4.93;;
16262;SDS011;8239;48.594;8.598;2024-03-02T11:15:28;4.55;;;4.15;;
16262;SDS011;8239;48.594;8.598;2024-03-02T11:17:55;4.57;;;4.05;;
16262;SDS011;8239;48.594;8.598;2024-03-02T11:20:23;3.88;;;3.47;;
16262;SDS011;8239;48.594;8.598;2024-03-02T11:22:50;3.28;;;2.97;;
16262;SDS011;8239;48.594;8.598;2024-03-02T11:25:24;3.63;;;3.33;;
16262;SDS011;8239;48.594;8.598;2024-03-02T11:28:06;3.20;;;2.90;;
16262;SDS011;8239;48.594;8.598;2024-03-02T11:30:49;3.17;;;2.70;;
16262;SDS011;8239;48.594;8.598;2024-03-02T11:33:26;2.40;;;2.20;;
16262;SDS011;8239;48.594;8.598;2024-03-02T11:35:54;2.38;;;2.17;;
16262;SDS011;8239;48.594;8.598;2024-03-02T11:38:23;2.40;;;2.22;;
16262;SDS011;8239;48.594;8.598;2024-03-02T11:40:54;2.13;;;2.03;;
16262;SDS011;8239;48.594;8.598;2024-03-02T11:43:22;2.45;;;2.20;;
16262;SDS011;8239;48.594;8.598;2024-03-02T11:45:56;2.60;;;2.40;;
16262;SDS011;8239;48.594;8.598;2024-03-02T11:48:24;2.10;;;1.90;;
16262;SDS011;8239;48.594;8.598;2024-03-02T11:50:52;2.55;;;2.35;;
16262;SDS011;8239;48.594;8.598;2024-03-02T11:53:19;2.05;;;1.80;;
16262;SDS011;8239;48.594;8.598;2024-03-02T11:55:47;2.22;;;2.13;;
16262;SDS011;8239;48.594;8.598;2024-03-02T11:58:15;2.38;;;2.00;;
16262;SDS011;8239;48.594;8.598;2024-03-02T12:00:46;1.92;;;1.83;;
16262;SDS011;8239;48.594;8.598;2024-03-02T12:03:16;1.98;;;1.88;;
16262;SDS011;8239;48.594;8.598;2024-03-02T12:05:43;2.00;;;1.90;;
16262;SDS011;8239;48.594;8.598;2024-03-02T12:08:11;2.30;;;2.10;;
16262;SDS011;8239;48.594;8.598;2024-03-02T12:10:38;2.50;;;2.03;;
16262;SDS011;8239;48.594;8.598;2024-03-02T12:13:06;2.10;;;2.00;;
16262;SDS011;8239;48.594;8.598;2024-03-02T12:15:36;2.47;;;2.10;;
16262;SDS011;8239;48.594;8.598;2024-03-02T12:18:06;2.38;;;2.17;;
16262;SDS011;8239;48.594;8.598;2024-03-02T12:20:33;1.75;;;1.65;;
16262;SDS011;8239;48.594;8.598;2024-03-02T12:23:01;2.90;;;1.70;;
16262;SDS011;8239;48.594;8.598;2024-03-02T12:25:31;1.90;;;1.80;;
16262;SDS011;8239;48.594;8.598;2024-03-02T12:27:59;1.92;;;1.83;;
16262;SDS011;8239;48.594;8.598;2024-03-02T12:30:29;1.50;;;1.40;;
16262;SDS011;8239;48.594;8.598;2024-03-02T12:32:57;1.80;;;1.70;;
16262;SDS011;8239;48.594;8.598;2024-03-02T12:35:25;1.90;;;1.80;;
16262;SDS011;8239;48.594;8.598;2024-03-02T12:37:53;1.55;;;1.40;;
16262;SDS011;8239;48.594;8.598;2024-03-02T12:40:21;1.92;;;1.48;;
16262;SDS011;8239;48.594;8.598;2024-03-02T12:42:48;1.40;;;1.30;;
16262;SDS011;8239;48.594;8.598;2024-03-02T12:45:16;1.42;;;1.33;;
16262;SDS011;8239;48.594;8.598;2024-03-02T12:47:48;1.83;;;1.73;;
16262;SDS011;8239;48.594;8.598;2024-03-02T12:50:15;1.77;;;1.65;;
16262;SDS011;8239;48.594;8.598;2024-03-02T12:52:44;1.80;;;1.70;;
16262;SDS011;8239;48.594;8.598;2024-03-02T12:55:17;1.58;;;1.48;;
16262;SDS011;8239;48.594;8.598;2024-03-02T12:57:46;1.70;;;1.60;;
16262;SDS011;8239;48.594;8.598;2024-03-02T13:00:13;1.90;;;1.80;;
16262;SDS011;8239;48.594;8.598;2024-03-02T13:02:40;1.92;;;1.73;;
16262;SDS011;8239;48.594;8.598;2024-03-02T13:05:08;2.00;;;1.90;;
16262;SDS011;8239;48.594;8.598;2024-03-02T13:07:36;2.10;;;1.73;;
16262;SDS011;8239;48.594;8.598;2024-03-02T13:10:05;1.60;;;1.50;;
16262;SDS011;8239;48.594;8.598;2024-03-02T13:12:34;2.55;;;1.80;;
16262;SDS011;8239;48.594;8.598;2024-03-02T13:15:02;2.15;;;1.77;;
16262;SDS011;8239;48.594;8.598;2024-03-02T13:17:30;1.67;;;1.58;;
16262;SDS011;8239;48.594;8.598;2024-03-02T13:19:59;1.40;;;1.30;;
16262;SDS011;8239;48.594;8.598;2024-03-02T13:22:26;1.73;;;1.63;;
16262;SDS011;8239;48.594;8.598;2024-03-02T13:24:53;1.88;;;1.77;;
16262;SDS011;8239;48.594;8.598;2024-03-02T13:27:22;1.50;;;1.40;;
16262;SDS011;8239;48.594;8.598;2024-03-02T13:29:49;1.90;;;1.80;;
16262;SDS011;8239;48.594;8.598;2024-03-02T13:32:16;2.03;;;1.65;;
16262;SDS011;8239;48.594;8.598;2024-03-02T13:34:45;2.17;;;1.98;;
16262;SDS011;8239;48.594;8.598;2024-03-02T13:37:12;1.88;;;1.70;;
16262;SDS011;8239;48.594;8.598;2024-03-02T13:39:39;1.50;;;1.40;;
16262;SDS011;8239;48.594;8.598;2024-03-02T13:42:07;1.90;;;1.70;;
16262;SDS011;8239;48.594;8.598;2024-03-02T13:44:36;2.03;;;1.83;;
16262;SDS011;8239;48.594;8.598;2024-03-02T13:47:03;1.98;;;1.83;;
16262;SDS011;8239;48.594;8.598;2024-03-02T13:49:31;1.45;;;1.35;;
16262;SDS011;8239;48.594;8.598;2024-03-02T13:52:01;5.78;;;4.80;;
16262;SDS011;8239;48.594;8.598;2024-03-02T13:54:36;3.53;;;2.30;;
16262;SDS011;8239;48.594;8.598;2024-03-02T13:57:03;2.75;;;2.50;;
16262;SDS011;8239;48.594;8.598;2024-03-02T13:59:30;2.30;;;2.10;;
16262;SDS011;8239;48.594;8.598;2024-03-02T14:01:59;2.00;;;1.90;;
16262;SDS011;8239;48.594;8.598;2024-03-02T14:04:26;2.10;;;2.00;;
16262;SDS011;8239;48.594;8.598;2024-03-02T14:06:53;2.63;;;2.42;;
16262;SDS011;8239;48.594;8.598;2024-03-02T14:09:21;1.60;;;1.50;;
16262;SDS011;8239;48.594;8.598;2024-03-02T14:11:49;1.90;;;1.80;;
16262;SDS011;8239;48.594;8.598;2024-03-02T14:14:16;1.35;;;1.25;;
16262;SDS011;8239;48.594;8.598;2024-03-02T14:16:43;1.92;;;1.83;;
16262;SDS011;8239;48.594;8.598;2024-03-02T14:19:12;1.80;;;1.70;;
16262;SDS011;8239;48.594;8.598;2024-03-02T14:21:39;1.90;;;1.70;;
16262;SDS011;8239;48.594;8.598;2024-03-02T14:24:07;1.50;;;1.40;;
16262;SDS011;8239;48.594;8.598;2024-03-02T14:26:34;1.95;;;1.83;;
16262;SDS011;8239;48.594;8.598;2024-03-02T14:29:01;1.92;;;1.50;;
16262;SDS011;8239;48.594;8.598;2024-03-02T14:31:29;2.00;;;1.80;;
16262;SDS011;8239;48.594;8.598;2024-03-02T14:33:56;1.73;;;1.63;;
16262;SDS011;8239;48.594;8.598;2024-03-02T14:36:25;1.50;;;1.40;;
16262;SDS011;8239;48.594;8.598;2024-03-02T14:38:52;1.48;;;1.38;;
16262;SDS011;8239;48.594;8.598;2024-03-02T14:41:19;2.15;;;1.30;;
16262;SDS011;8239;48.594;8.598;2024-03-02T14:43:46;1.73;;;1.60;;
16262;SDS011;8239;48.594;8.598;2024-03-02T14:46:14;2.13;;;1.92;;
16262;SDS011;8239;48.594;8.598;2024-03-02T14:48:43;1.70;;;1.60;;
16262;SDS011;8239;48.594;8.598;2024-03-02T14:51:11;2.65;;;1.50;;
16262;SDS011;8239;48.594;8.598;2024-03-02T14:53:40;1.70;;;1.60;;
16262;SDS011;8239;48.594;8.598;2024-03-02T14:56:07;2.92;;;1.70;;
16262;SDS011;8239;48.594;8.598;2024-03-02T14:58:34;2.45;;;1.48;;
16262;SDS011;8239;48.594;8.598;2024-03-02T15:01:01;2.25;;;1.42;;
16262;SDS011;8239;48.594;8.598;2024-03-02T15:03:29;2.30;;;1.73;;
16262;SDS011;8239;48.594;8.598;2024-03-02T15:05:56;1.40;;;1.30;;
16262;SDS011;8239;48.594;8.598;2024-03-02T15:08:24;1.42;;;1.33;;